createdAt,value
2023-04-02T00:00:19.781Z,10.64
2023-04-02T00:03:23.268Z,10.77
2023-04-02T00:06:30.474Z,10.75
2023-04-02T00:09:37.848Z,10.74
2023-04-02T00:12:40.721Z,10.85
2023-04-02T00:15:47.550Z,10.83
2023-04-02T00:18:53.833Z,10.73
2023-04-02T00:21:57.910Z,10.94
2023-04-02T00:25:07.914Z,11.06
2023-04-02T00:28:20.124Z,11.10
2023-04-02T00:31:23.442Z,11.07
2023-04-02T00:34:31.742Z,11.14
2023-04-02T00:37:39.497Z,10.94
2023-04-02T00:40:42.835Z,11.09
2023-04-02T00:43:47.354Z,10.90
2023-04-02T00:46:51.337Z,11.09
2023-04-02T00:50:01.176Z,11.19
2023-04-02T00:53:11.737Z,10.98
2023-04-02T00:56:22.093Z,10.97
2023-04-02T01:00:08.445Z,10.89
2023-04-02T01:03:17.159Z,10.85
2023-04-02T01:06:21.004Z,10.87
2023-04-02T01:10:01.851Z,10.70
2023-04-02T01:13:25.121Z,10.52
2023-04-02T01:16:31.149Z,10.64
2023-04-02T01:19:58.638Z,10.55
2023-04-02T01:23:35.544Z,10.47
2023-04-02T01:27:02.306Z,10.63
2023-04-02T01:30:07.388Z,10.35
2023-04-02T01:33:12.435Z,10.48
2023-04-02T01:36:32.147Z,10.45
2023-04-02T01:39:54.485Z,10.52
2023-04-02T01:43:12.989Z,10.49
2023-04-02T01:46:31.944Z,10.65
2023-04-02T01:49:34.715Z,10.68
2023-04-02T01:52:41.678Z,10.36
2023-04-02T01:55:54.615Z,10.60
2023-04-02T01:58:59.441Z,10.43
2023-04-02T02:02:07.607Z,10.65
2023-04-02T02:05:16.397Z,10.58
2023-04-02T02:08:30.467Z,10.67
2023-04-02T02:11:36.532Z,10.76
2023-04-02T02:14:47.775Z,10.64
2023-04-02T02:17:59.445Z,10.77
2023-04-02T02:21:07.889Z,10.76
2023-04-02T02:24:26.381Z,10.62
2023-04-02T02:27:30.741Z,10.72
2023-04-02T02:30:54.366Z,10.72
2023-04-02T02:34:06.331Z,10.64
2023-04-02T02:37:18.440Z,10.45
2023-04-02T02:40:29.793Z,10.48
2023-04-02T02:43:35.227Z,10.75
2023-04-02T02:46:42.884Z,10.59
2023-04-02T02:49:51.438Z,10.44
2023-04-02T02:52:59.112Z,10.54
2023-04-02T02:56:05.463Z,10.59
2023-04-02T02:59:17.093Z,10.53
2023-04-02T03:02:20.593Z,10.63
2023-04-02T03:05:26.550Z,10.76
2023-04-02T03:08:57.057Z,10.25
2023-04-02T03:12:24.731Z,10.33
2023-04-02T03:16:04.758Z,10.38
2023-04-02T03:19:23.440Z,9.82
2023-04-02T03:22:47.365Z,10.23
2023-04-02T03:26:12.708Z,9.97
2023-04-02T03:29:25.632Z,10.30
2023-04-02T03:32:33.323Z,9.99
2023-04-02T03:35:39.571Z,10.22
2023-04-02T03:39:12.225Z,10.11
2023-04-02T03:42:21.645Z,9.76
2023-04-02T03:45:34.073Z,10.02
2023-04-02T03:48:44.068Z,10.14
2023-04-02T03:52:06.111Z,10.15
2023-04-02T03:55:16.005Z,10.08
2023-04-02T03:58:41.251Z,10.12
2023-04-02T04:02:19.648Z,10.13
2023-04-02T04:05:36.491Z,10.35
2023-04-02T04:09:00.106Z,9.95
2023-04-02T04:12:21.221Z,10.11
2023-04-02T04:15:40.988Z,10.28
2023-04-02T04:18:57.018Z,10.27
2023-04-02T04:22:19.735Z,10.31
2023-04-02T04:25:30.111Z,10.15
2023-04-02T04:29:05.623Z,10.26
2023-04-02T04:32:34.211Z,10.13
2023-04-02T04:35:57.656Z,10.04
2023-04-02T04:39:21.533Z,9.87
2023-04-02T04:42:33.302Z,9.66
2023-04-02T04:45:51.653Z,9.81
2023-04-02T04:49:06.484Z,9.98
2023-04-02T04:52:16.437Z,9.87
2023-04-02T04:55:29.741Z,10.03
2023-04-02T04:58:48.627Z,9.85
2023-04-02T05:02:05.012Z,10.02
2023-04-02T05:05:21.854Z,10.38
2023-04-02T05:08:36.406Z,10.46
2023-04-02T05:11:46.550Z,10.44
2023-04-02T05:15:32.826Z,10.64
2023-04-02T05:18:45.421Z,10.97
2023-04-02T05:22:26.156Z,10.84
2023-04-02T05:25:31.134Z,11.04
2023-04-02T05:28:45.267Z,11.21
2023-04-02T05:32:13.851Z,10.96
2023-04-02T05:35:20.577Z,11.26
2023-04-02T05:38:32.525Z,11.34
2023-04-02T05:41:46.012Z,11.14
2023-04-02T05:45:23.947Z,11.05
2023-04-02T05:48:38.002Z,11.22
2023-04-02T05:51:45.551Z,11.32
2023-04-02T05:54:59.797Z,10.99
2023-04-02T05:58:33.965Z,11.40
2023-04-02T06:01:51.451Z,11.10
2023-04-02T06:05:12.650Z,11.12
2023-04-02T06:08:19.532Z,11.43
2023-04-02T06:11:42.870Z,11.14
2023-04-02T06:14:47.848Z,11.45
2023-04-02T06:17:52.579Z,11.62
2023-04-02T06:20:56.679Z,11.77
2023-04-02T06:24:04.567Z,11.88
2023-04-02T06:27:15.236Z,11.91
2023-04-02T06:30:30.241Z,12.40
2023-04-02T06:33:33.432Z,12.21
2023-04-02T06:36:36.440Z,12.08
2023-04-02T06:39:43.159Z,12.19
2023-04-02T06:42:48.428Z,12.05
2023-04-02T06:46:34.732Z,12.28
2023-04-02T06:50:05.809Z,12.15
2023-04-02T06:53:21.809Z,12.47
2023-04-02T06:56:34.687Z,12.84
2023-04-02T06:59:38.289Z,13.14
2023-04-02T07:02:46.746Z,13.10
2023-04-02T07:05:49.748Z,13.29
2023-04-02T07:08:53.239Z,13.42
2023-04-02T07:11:58.183Z,13.26
2023-04-02T07:15:01.693Z,13.28
2023-04-02T07:18:05.407Z,13.40
2023-04-02T07:21:09.800Z,13.24
2023-04-02T07:24:12.572Z,12.74
2023-04-02T07:27:15.939Z,13.32
2023-04-02T07:30:19.495Z,12.88
2023-04-02T07:33:28.900Z,13.22
2023-04-02T07:36:31.882Z,12.89
2023-04-02T07:39:36.945Z,13.26
2023-04-02T07:42:41.814Z,13.02
2023-04-02T07:45:44.839Z,13.68
2023-04-02T07:48:47.923Z,13.56
2023-04-02T07:51:52.136Z,13.47
2023-04-02T07:54:55.808Z,13.89
2023-04-02T07:57:59.864Z,13.35
2023-04-02T08:01:04.471Z,13.62
2023-04-02T08:04:19.571Z,13.52
2023-04-02T08:07:22.186Z,14.02
2023-04-02T08:10:24.987Z,14.25
2023-04-02T08:13:28.274Z,14.29
2023-04-02T08:17:07.090Z,13.94
2023-04-02T08:20:19.824Z,14.16
2023-04-02T08:23:22.535Z,13.90
2023-04-02T08:26:26.150Z,14.33
2023-04-02T08:29:32.446Z,14.37
2023-04-02T08:32:35.677Z,14.37
2023-04-02T08:35:39.049Z,14.24
2023-04-02T08:38:42.987Z,14.01
2023-04-02T08:41:58.438Z,14.45
2023-04-02T08:45:25.259Z,14.57
2023-04-02T08:48:32.761Z,15.23
2023-04-02T08:51:36.879Z,15.48
2023-04-02T08:54:43.762Z,15.54
2023-04-02T08:58:09.444Z,15.12
2023-04-02T09:01:51.821Z,14.93
2023-04-02T09:05:00.369Z,15.42
2023-04-02T09:08:07.912Z,14.58
2023-04-02T09:11:52.550Z,15.22
2023-04-02T09:14:58.349Z,14.98
2023-04-02T09:18:16.828Z,14.59
2023-04-02T09:21:30.955Z,14.76
2023-04-02T09:24:34.248Z,14.95
2023-04-02T09:27:36.924Z,14.59
2023-04-02T09:30:54.844Z,14.84
2023-04-02T09:33:57.780Z,14.62
2023-04-02T09:37:25.442Z,14.54
2023-04-02T09:40:32.298Z,14.58
2023-04-02T09:43:37.100Z,14.53
2023-04-02T09:46:59.589Z,15.12
2023-04-02T09:50:21.427Z,15.32
2023-04-02T09:53:35.601Z,15.65
2023-04-02T09:56:41.245Z,15.60
2023-04-02T09:59:44.466Z,15.58
2023-04-02T10:03:04.501Z,15.65
2023-04-02T10:06:11.469Z,15.49
2023-04-02T10:09:28.902Z,15.21
2023-04-02T10:12:41.562Z,15.52
2023-04-02T10:15:57.772Z,15.50
2023-04-02T10:19:22.341Z,15.54
2023-04-02T10:22:28.637Z,15.36
2023-04-02T10:25:41.540Z,15.60
2023-04-02T10:29:06.884Z,14.95
2023-04-02T10:32:23.625Z,15.86
2023-04-02T10:35:38.599Z,15.80
2023-04-02T10:39:05.248Z,15.74
2023-04-02T10:42:20.120Z,16.01
2023-04-02T10:45:45.843Z,16.07
2023-04-02T10:48:58.618Z,15.84
2023-04-02T10:52:20.081Z,16.01
2023-04-02T10:55:28.088Z,15.76
2023-04-02T10:58:33.638Z,16.29
2023-04-02T11:01:41.722Z,16.24
2023-04-02T11:04:47.106Z,16.57
2023-04-02T11:08:18.380Z,16.34
2023-04-02T11:11:43.170Z,16.15
2023-04-02T11:14:46.201Z,16.36
2023-04-02T11:17:49.407Z,16.63
2023-04-02T11:21:00.932Z,16.13
2023-04-02T11:24:05.307Z,16.26
2023-04-02T11:27:23.722Z,16.33
2023-04-02T11:30:27.725Z,16.27
2023-04-02T11:33:38.161Z,16.48
2023-04-02T11:36:50.928Z,15.93
2023-04-02T11:39:57.391Z,16.50
2023-04-02T11:43:33.038Z,16.90
2023-04-02T11:46:40.940Z,17.15
2023-04-02T11:49:58.915Z,17.33
2023-04-02T11:53:21.648Z,17.30
2023-04-02T11:56:50.582Z,16.74
2023-04-02T12:00:14.656Z,17.49
2023-04-02T12:03:28.419Z,17.68
2023-04-02T12:06:47.304Z,18.01
2023-04-02T12:09:55.542Z,17.64
2023-04-02T12:13:01.561Z,18.11
2023-04-02T12:16:04.608Z,17.73
2023-04-02T12:19:09.742Z,18.03
2023-04-02T12:22:21.740Z,17.76
2023-04-02T12:25:34.294Z,18.21
2023-04-02T12:28:38.240Z,19.18
2023-04-02T12:31:48.558Z,18.77
2023-04-02T12:34:53.156Z,17.40
2023-04-02T12:37:58.048Z,18.66
2023-04-02T12:41:03.887Z,19.44
2023-04-02T12:44:18.588Z,20.43
2023-04-02T12:47:22.251Z,21.45
2023-04-02T12:50:24.981Z,21.89
2023-04-02T12:53:36.432Z,19.87
2023-04-02T12:56:39.686Z,21.01
2023-04-02T12:59:43.852Z,21.83
2023-04-02T13:02:49.432Z,21.17
2023-04-02T13:05:57.458Z,22.04
2023-04-02T13:09:03.112Z,21.09
2023-04-02T13:12:34.034Z,21.45
2023-04-02T13:15:37.299Z,22.08
2023-04-02T13:18:40.495Z,21.70
2023-04-02T13:21:45.390Z,22.75
2023-04-02T13:24:48.510Z,23.39
2023-04-02T13:27:53.842Z,23.63
2023-04-02T13:30:56.439Z,24.07
2023-04-02T13:34:00.268Z,23.86
2023-04-02T13:37:03.780Z,22.87
2023-04-02T13:40:09.347Z,20.88
2023-04-02T13:43:20.661Z,20.93
2023-04-02T13:46:27.892Z,23.84
2023-04-02T13:49:32.113Z,24.02
2023-04-02T13:52:34.883Z,23.67
2023-04-02T13:55:40.671Z,24.03
2023-04-02T13:58:45.965Z,23.54
2023-04-02T14:01:51.683Z,23.86
2023-04-02T14:05:31.967Z,23.58
2023-04-02T14:09:01.751Z,24.21
2023-04-02T14:12:26.920Z,23.39
2023-04-02T14:15:51.014Z,21.68
2023-04-02T14:18:56.431Z,23.70
2023-04-02T14:22:33.284Z,23.82
2023-04-02T14:26:05.562Z,23.69
2023-04-02T14:29:22.001Z,22.27
2023-04-02T14:33:05.402Z,20.08
2023-04-02T14:36:38.740Z,21.59
2023-04-02T14:40:13.548Z,22.02
2023-04-02T14:43:24.523Z,20.99
2023-04-02T14:46:31.017Z,18.73
2023-04-02T14:49:41.861Z,16.83
2023-04-02T14:52:51.871Z,16.36
2023-04-02T14:55:59.492Z,15.65
2023-04-02T14:59:21.542Z,15.05
2023-04-02T15:02:40.312Z,14.80
2023-04-02T15:05:58.290Z,14.89
2023-04-02T15:09:19.772Z,14.52
2023-04-02T15:12:27.079Z,14.09
2023-04-02T15:15:49.144Z,14.13
2023-04-02T15:18:55.490Z,14.02
2023-04-02T15:22:14.384Z,14.09
2023-04-02T15:25:33.802Z,13.36
2023-04-02T15:28:46.553Z,13.33
2023-04-02T15:31:51.985Z,13.67
2023-04-02T15:35:08.791Z,13.20
2023-04-02T15:38:29.114Z,13.14
2023-04-02T15:41:55.782Z,13.70
2023-04-02T15:45:21.477Z,13.99
2023-04-02T15:48:36.319Z,14.14
2023-04-02T15:51:58.285Z,14.08
2023-04-02T15:55:19.110Z,14.50
2023-04-02T15:58:31.075Z,14.47
2023-04-02T16:01:59.631Z,14.75
2023-04-02T16:05:09.470Z,14.89
2023-04-02T16:08:29.043Z,14.70
2023-04-02T16:11:33.648Z,14.92
2023-04-02T16:14:49.056Z,15.22
2023-04-02T16:18:01.660Z,15.43
2023-04-02T16:21:04.686Z,15.57
2023-04-02T16:24:14.189Z,15.06
2023-04-02T16:27:31.811Z,14.84
2023-04-02T16:30:46.760Z,15.09
2023-04-02T16:34:26.977Z,15.11
2023-04-02T16:37:48.910Z,15.36
2023-04-02T16:41:09.880Z,15.38
2023-04-02T16:44:21.283Z,15.25
2023-04-02T16:47:46.149Z,14.97
2023-04-02T16:51:17.738Z,15.02
2023-04-02T16:54:31.123Z,14.96
2023-04-02T16:57:43.135Z,14.17
2023-04-02T17:00:54.073Z,14.21
2023-04-02T17:04:15.853Z,14.19
2023-04-02T17:07:40.740Z,14.01
2023-04-02T17:11:01.193Z,14.08
2023-04-02T17:14:35.989Z,13.29
2023-04-02T17:17:39.273Z,13.51
2023-04-02T17:20:42.841Z,12.98
2023-04-02T17:27:03.771Z,13.02
2023-04-02T17:30:17.370Z,12.78
2023-04-02T17:33:22.125Z,12.66
2023-04-02T17:36:49.122Z,12.23
2023-04-02T17:40:20.798Z,12.05
2023-04-02T17:43:46.162Z,11.95
2023-04-02T17:47:03.398Z,12.02
2023-04-02T17:50:47.735Z,12.16
2023-04-02T17:54:14.798Z,11.83
2023-04-02T17:57:47.386Z,11.86
2023-04-02T18:01:11.337Z,11.63
2023-04-02T18:04:53.633Z,11.34
2023-04-02T18:07:56.480Z,10.96
2023-04-02T18:11:04.900Z,11.14
2023-04-02T18:14:32.996Z,11.20
2023-04-02T18:17:45.641Z,10.82
2023-04-02T18:21:16.811Z,10.68
2023-04-02T18:24:42.810Z,10.60
2023-04-02T18:27:57.182Z,10.54
2023-04-02T18:31:13.513Z,10.54
2023-04-02T18:34:35.490Z,10.70
2023-04-02T18:38:02.244Z,10.22
2023-04-02T18:41:29.093Z,10.34
2023-04-02T18:44:49.344Z,10.46
2023-04-02T18:48:01.142Z,10.14
2023-04-02T18:51:05.856Z,9.97
2023-04-02T18:54:09.529Z,10.11
2023-04-02T18:57:19.967Z,10.21
2023-04-02T19:00:31.357Z,9.84
2023-04-02T19:03:53.555Z,10.03
2023-04-02T19:07:19.424Z,9.43
2023-04-02T19:10:44.493Z,9.39
2023-04-02T19:13:49.074Z,9.43
2023-04-02T19:17:07.539Z,9.48
2023-04-02T19:20:25.640Z,9.47
2023-04-02T19:23:56.132Z,9.43
2023-04-02T19:27:08.184Z,9.35
2023-04-02T19:30:41.278Z,9.30
2023-04-02T19:34:11.087Z,8.94
2023-04-02T19:37:30.731Z,9.06
2023-04-02T19:41:04.095Z,9.04
2023-04-02T19:44:13.037Z,8.96
2023-04-02T19:47:18.729Z,9.01
2023-04-02T19:50:22.632Z,8.88
2023-04-02T19:53:25.728Z,8.92
2023-04-02T19:56:29.279Z,8.66
2023-04-02T19:59:32.722Z,8.70
2023-04-02T20:02:36.734Z,8.82
2023-04-02T20:05:39.564Z,8.97
2023-04-02T20:08:42.452Z,9.10
2023-04-02T20:11:46.760Z,9.06
2023-04-02T20:14:49.518Z,9.00
2023-04-02T20:17:52.820Z,8.72
2023-04-02T20:20:56.378Z,8.92
2023-04-02T20:23:58.956Z,9.00
2023-04-02T20:27:01.580Z,9.08
2023-04-02T20:30:05.188Z,8.77
2023-04-02T20:33:08.181Z,9.00
2023-04-02T20:36:13.026Z,8.66
2023-04-02T20:39:19.484Z,8.84
2023-04-02T20:42:22.365Z,8.88
2023-04-02T20:45:27.893Z,8.38
2023-04-02T20:48:32.496Z,8.91
2023-04-02T20:51:35.800Z,8.70
2023-04-02T20:54:53.644Z,9.02
2023-04-02T20:57:56.536Z,9.10
2023-04-02T21:01:15.715Z,8.62
2023-04-02T21:04:19.314Z,8.71
2023-04-02T21:07:21.911Z,9.13
2023-04-02T21:10:25.477Z,8.80
2023-04-02T21:13:30.944Z,9.12
2023-04-02T21:16:34.927Z,8.93
2023-04-02T21:19:38.437Z,8.80
2023-04-02T21:22:41.244Z,8.53
2023-04-02T21:25:55.561Z,8.46
2023-04-02T21:28:58.810Z,8.85
2023-04-02T21:32:08.324Z,9.04
2023-04-02T21:35:17.751Z,8.92
2023-04-02T21:38:20.478Z,9.04
2023-04-02T21:41:26.719Z,8.92
2023-04-02T21:44:29.210Z,8.99
2023-04-02T21:47:32.599Z,8.83
2023-04-02T21:50:35.612Z,8.76
2023-04-02T21:53:39.158Z,8.70
2023-04-02T21:56:44.821Z,8.76
2023-04-02T21:59:47.520Z,8.60
2023-04-02T22:02:50.107Z,8.75
2023-04-02T22:06:11.887Z,8.33
2023-04-02T22:09:21.734Z,8.17
2023-04-02T22:12:25.516Z,8.35
2023-04-02T22:15:32.138Z,8.39
2023-04-02T22:18:35.209Z,8.44
2023-04-02T22:21:38.525Z,8.41
2023-04-02T22:24:41.162Z,8.47
2023-04-02T22:27:44.018Z,8.29
2023-04-02T22:30:48.827Z,8.27
2023-04-02T22:33:53.603Z,8.28
2023-04-02T22:36:56.790Z,8.38
2023-04-02T22:40:00.995Z,8.33
2023-04-02T22:43:03.676Z,8.50
2023-04-02T22:46:09.424Z,8.49
2023-04-02T22:49:19.138Z,7.69
2023-04-02T22:52:22.840Z,8.15
2023-04-02T22:55:27.066Z,8.20
2023-04-02T22:58:30.025Z,8.08
2023-04-02T23:01:36.673Z,8.00
2023-04-02T23:04:41.285Z,8.14
2023-04-02T23:07:44.263Z,7.85
2023-04-02T23:10:46.843Z,7.96
2023-04-02T23:13:52.766Z,7.80
2023-04-02T23:16:55.521Z,7.47
2023-04-02T23:19:58.313Z,7.95
2023-04-02T23:23:01.111Z,8.05
2023-04-02T23:26:11.988Z,7.96
2023-04-02T23:29:15.003Z,7.99
2023-04-02T23:32:19.439Z,7.62
2023-04-02T23:35:22.956Z,7.95
2023-04-02T23:38:26.739Z,7.66
2023-04-02T23:41:30.791Z,7.82
2023-04-02T23:44:33.587Z,7.43
2023-04-02T23:47:36.995Z,7.55
2023-04-02T23:50:40.467Z,7.60
2023-04-02T23:53:43.553Z,7.61
2023-04-02T23:56:46.188Z,7.36
2023-04-02T23:59:49.430Z,7.67
